createdAt,value
2022-08-09T00:00:11.937Z,70.77
2022-08-09T00:02:42.885Z,70.85
2022-08-09T00:06:18.347Z,70.65
2022-08-09T00:08:10.239Z,70.29
2022-08-09T00:10:39.428Z,70.31
2022-08-09T00:13:16.830Z,70.50
2022-08-09T00:15:59.363Z,70.16
2022-08-09T00:18:35.617Z,70.52
2022-08-09T00:21:08.856Z,70.86
2022-08-09T00:23:57.340Z,71.14
2022-08-09T00:26:29.988Z,71.88
2022-08-09T00:29:01.716Z,71.54
2022-08-09T00:31:57.141Z,71.57
2022-08-09T00:34:19.077Z,72.14
2022-08-09T00:36:48.797Z,72.19
2022-08-09T00:40:09.156Z,72.65
2022-08-09T00:44:09.936Z,72.47
2022-08-09T00:44:53.740Z,72.43
2022-08-09T00:47:24.725Z,72.87
2022-08-09T00:49:54.931Z,73.47
2022-08-09T00:52:30.225Z,72.97
2022-08-09T00:55:00.920Z,72.88
2022-08-09T00:57:34.240Z,72.99
2022-08-09T01:00:21.438Z,72.94
2022-08-09T01:03:14.572Z,72.64
2022-08-09T01:05:59.055Z,72.40
2022-08-09T01:08:49.642Z,72.72
2022-08-09T01:11:29.912Z,73.02
2022-08-09T01:14:28.023Z,72.59
2022-08-09T01:17:05.176Z,73.11
2022-08-09T01:20:03.456Z,73.01
2022-08-09T01:23:04.077Z,73.17
2022-08-09T01:26:43.060Z,73.39
2022-08-09T01:29:17.443Z,73.25
2022-08-09T01:32:31.529Z,73.25
2022-08-09T01:34:35.484Z,74.11
2022-08-09T01:37:08.153Z,74.20
2022-08-09T01:39:37.073Z,73.94
2022-08-09T01:42:11.244Z,73.71
2022-08-09T01:44:41.493Z,73.88
2022-08-09T01:47:11.715Z,73.91
2022-08-09T01:49:39.886Z,73.98
2022-08-09T01:52:18.859Z,73.90
2022-08-09T01:54:54.575Z,74.37
2022-08-09T01:57:45.895Z,74.42
2022-08-09T02:00:34.520Z,74.22
2022-08-09T02:03:03.227Z,73.63
2022-08-09T02:05:37.804Z,73.84
2022-08-09T02:08:40.052Z,73.92
2022-08-09T02:11:17.027Z,74.22
2022-08-09T02:14:02.215Z,74.49
2022-08-09T02:16:53.070Z,74.10
2022-08-09T02:19:24.636Z,74.54
2022-08-09T02:22:15.570Z,75.06
2022-08-09T02:24:52.023Z,74.93
2022-08-09T02:27:21.471Z,75.18
2022-08-09T02:30:09.996Z,74.88
2022-08-09T02:32:43.393Z,74.82
2022-08-09T02:35:26.158Z,74.80
2022-08-09T02:38:11.515Z,74.72
2022-08-09T02:40:50.881Z,75.72
2022-08-09T02:43:21.173Z,76.87
2022-08-09T02:45:50.988Z,76.74
2022-08-09T02:48:31.195Z,76.52
2022-08-09T02:51:02.498Z,76.52
2022-08-09T02:53:53.089Z,76.32
2022-08-09T02:56:28.882Z,76.39
2022-08-09T02:59:04.044Z,76.40
2022-08-09T03:01:42.594Z,77.19
2022-08-09T03:04:20.708Z,77.10
2022-08-09T03:06:54.159Z,77.39
2022-08-09T03:09:25.107Z,77.49
2022-08-09T03:12:09.780Z,78.23
2022-08-09T03:14:41.111Z,78.47
2022-08-09T03:17:16.518Z,78.41
2022-08-09T03:19:59.710Z,78.99
2022-08-09T03:22:31.894Z,78.69
2022-08-09T03:25:06.653Z,78.28
2022-08-09T03:27:52.314Z,78.36
2022-08-09T03:30:30.056Z,77.86
2022-08-09T03:33:17.488Z,78.11
2022-08-09T03:36:12.370Z,78.30
2022-08-09T03:38:42.139Z,77.88
2022-08-09T03:41:14.885Z,78.06
2022-08-09T03:44:03.801Z,78.58
2022-08-09T03:46:38.281Z,79.05
2022-08-09T03:49:08.083Z,79.07
2022-08-09T03:52:04.727Z,78.66
2022-08-09T03:54:38.902Z,79.10
2022-08-09T03:57:18.570Z,79.57
2022-08-09T03:59:56.156Z,79.92
2022-08-09T04:02:29.713Z,80.84
2022-08-09T04:05:05.668Z,80.95
2022-08-09T04:07:53.405Z,81.56
2022-08-09T04:10:29.578Z,81.06
2022-08-09T04:13:00.784Z,81.14
2022-08-09T04:15:38.730Z,81.54
2022-08-09T04:18:16.453Z,81.44
2022-08-09T04:20:44.672Z,82.12
2022-08-09T04:23:17.064Z,82.20
2022-08-09T04:25:52.295Z,82.81
2022-08-09T04:28:33.916Z,83.07
2022-08-09T04:31:08.606Z,83.45
2022-08-09T04:33:52.497Z,82.90
2022-08-09T04:36:26.764Z,82.25
2022-08-09T04:38:56.032Z,82.11
2022-08-09T04:41:24.397Z,81.82
2022-08-09T04:44:06.915Z,82.13
2022-08-09T04:46:59.260Z,81.80
2022-08-09T04:49:40.173Z,82.96
2022-08-09T04:52:18.495Z,82.83
2022-08-09T04:54:52.154Z,83.34
2022-08-09T04:57:21.418Z,83.64
2022-08-09T04:59:52.515Z,84.05
2022-08-09T05:02:19.819Z,84.39
2022-08-09T05:04:47.453Z,83.99
2022-08-09T05:07:19.412Z,84.87
2022-08-09T05:09:50.031Z,85.24
2022-08-09T05:12:19.170Z,85.54
2022-08-09T05:14:49.562Z,85.89
2022-08-09T05:18:38.169Z,86.43
2022-08-09T05:20:05.250Z,86.04
2022-08-09T05:22:35.820Z,86.04
2022-08-09T05:25:22.953Z,85.46
2022-08-09T05:27:52.805Z,84.70
2022-08-09T05:30:22.532Z,84.37
2022-08-09T05:32:50.770Z,84.21
2022-08-09T05:35:21.933Z,84.23
2022-08-09T05:37:50.109Z,83.19
2022-08-09T05:40:18.181Z,82.76
2022-08-09T05:42:46.081Z,82.52
2022-08-09T05:45:14.464Z,82.52
2022-08-09T05:47:53.013Z,82.74
2022-08-09T05:50:44.074Z,82.26
2022-08-09T05:53:31.702Z,82.98
2022-08-09T05:56:16.587Z,82.60
2022-08-09T05:58:44.265Z,82.80
2022-08-09T06:01:11.545Z,82.23
2022-08-09T06:03:54.556Z,82.02
2022-08-09T06:06:25.964Z,82.16
2022-08-09T06:08:53.263Z,82.78
2022-08-09T06:11:20.255Z,83.50
2022-08-09T06:14:09.236Z,84.68
2022-08-09T06:16:36.779Z,84.12
2022-08-09T06:19:03.951Z,83.19
2022-08-09T06:21:32.999Z,81.91
2022-08-09T06:24:02.359Z,81.11
2022-08-09T06:26:30.034Z,80.39
2022-08-09T06:29:00.148Z,80.24
2022-08-09T06:31:31.041Z,80.50
2022-08-09T06:33:58.822Z,79.72
2022-08-09T06:36:27.153Z,78.77
2022-08-09T06:38:57.670Z,78.41
2022-08-09T06:41:56.744Z,77.72
2022-08-09T06:44:18.025Z,76.78
2022-08-09T06:46:48.251Z,75.57
2022-08-09T06:49:29.105Z,75.12
2022-08-09T06:52:04.502Z,73.18
2022-08-09T06:54:34.985Z,72.08
2022-08-09T06:57:01.916Z,70.27
2022-08-09T07:00:51.081Z,72.18
2022-08-09T07:02:16.765Z,71.05
2022-08-09T07:04:43.775Z,69.05
2022-08-09T07:07:12.215Z,68.63
2022-08-09T07:10:11.500Z,67.69
2022-08-09T07:12:46.142Z,67.99
2022-08-09T07:16:34.990Z,64.75
2022-08-09T07:18:15.277Z,63.05
2022-08-09T07:20:43.498Z,58.67
2022-08-09T07:23:18.540Z,58.27
2022-08-09T07:25:52.232Z,57.61
2022-08-09T07:28:26.237Z,55.39
2022-08-09T07:30:56.030Z,52.70
2022-08-09T07:33:23.435Z,52.56
2022-08-09T07:35:53.897Z,51.60
2022-08-09T07:38:23.350Z,50.41
2022-08-09T07:41:08.331Z,50.51
2022-08-09T07:43:49.574Z,50.79
2022-08-09T07:46:19.145Z,48.14
2022-08-09T07:48:52.764Z,48.92
2022-08-09T07:52:04.544Z,48.47
2022-08-09T07:54:14.219Z,47.75
2022-08-09T07:56:44.962Z,47.08
2022-08-09T07:59:25.538Z,47.00
2022-08-09T08:02:02.943Z,47.42
2022-08-09T08:04:31.545Z,46.11
2022-08-09T08:07:27.013Z,46.23
2022-08-09T08:09:53.511Z,45.88
2022-08-09T08:12:28.258Z,45.71
2022-08-09T08:14:57.274Z,46.46
2022-08-09T08:17:53.115Z,45.71
2022-08-09T08:20:28.917Z,45.13
2022-08-09T08:23:03.452Z,44.96
2022-08-09T08:25:44.442Z,44.01
2022-08-09T08:28:15.225Z,43.65
2022-08-09T08:30:44.298Z,44.10
2022-08-09T08:33:22.881Z,43.80
2022-08-09T08:35:58.331Z,43.43
2022-08-09T08:38:28.040Z,44.26
2022-08-09T08:40:57.641Z,43.78
2022-08-09T08:43:27.272Z,42.69
2022-08-09T08:46:31.913Z,42.64
2022-08-09T08:48:55.213Z,42.91
2022-08-09T08:51:23.553Z,42.05
2022-08-09T08:54:03.428Z,42.22
2022-08-09T08:56:37.809Z,41.39
2022-08-09T08:59:19.687Z,40.92
2022-08-09T09:01:52.737Z,40.84
2022-08-09T09:04:27.262Z,39.83
2022-08-09T09:06:58.400Z,39.52
2022-08-09T09:09:58.403Z,39.22
2022-08-09T09:12:20.784Z,39.49
2022-08-09T09:14:52.155Z,39.10
2022-08-09T09:17:20.988Z,38.48
2022-08-09T09:19:48.199Z,38.28
2022-08-09T09:22:28.575Z,37.88
2022-08-09T09:26:01.808Z,37.14
2022-08-09T09:28:06.150Z,37.01
2022-08-09T09:30:39.969Z,37.23
2022-08-09T09:33:16.115Z,37.89
2022-08-09T09:36:19.902Z,36.96
2022-08-09T09:38:58.258Z,35.51
2022-08-09T09:41:33.374Z,35.03
2022-08-09T09:44:27.529Z,34.29
2022-08-09T09:47:07.963Z,35.38
2022-08-09T09:49:56.109Z,36.11
2022-08-09T09:52:35.765Z,34.64
2022-08-09T09:55:24.347Z,34.84
2022-08-09T09:58:18.840Z,34.64
2022-08-09T10:00:59.426Z,34.94
2022-08-09T10:03:57.801Z,33.39
2022-08-09T10:06:32.563Z,34.16
2022-08-09T10:09:11.888Z,34.26
2022-08-09T10:12:12.102Z,34.42
2022-08-09T10:14:48.095Z,34.08
2022-08-09T10:17:51.307Z,33.71
2022-08-09T10:20:27.426Z,33.58
2022-08-09T10:23:11.117Z,33.71
2022-08-09T10:26:06.623Z,32.81
2022-08-09T10:28:31.263Z,32.71
2022-08-09T10:34:10.615Z,32.09
2022-08-09T10:36:33.841Z,32.65
2022-08-09T10:39:02.969Z,32.73
2022-08-09T10:41:33.167Z,32.38
2022-08-09T10:44:04.163Z,32.29
2022-08-09T10:47:01.112Z,31.60
2022-08-09T10:49:51.774Z,31.74
2022-08-09T10:53:10.432Z,31.45
2022-08-09T10:55:55.707Z,31.65
2022-08-09T10:58:34.902Z,31.76
2022-08-09T11:03:06.932Z,31.65
2022-08-09T11:04:19.672Z,31.39
2022-08-09T11:07:01.159Z,31.59
2022-08-09T11:09:47.688Z,31.51
2022-08-09T11:12:30.505Z,31.53
2022-08-09T11:15:19.465Z,31.57
2022-08-09T11:18:02.907Z,31.08
2022-08-09T11:20:49.770Z,30.82
2022-08-09T11:23:17.171Z,31.11
2022-08-09T11:25:51.261Z,31.51
2022-08-09T11:28:54.394Z,31.27
2022-08-09T11:31:49.167Z,32.40
2022-08-09T11:34:31.158Z,31.64
2022-08-09T11:36:59.876Z,31.83
2022-08-09T11:39:37.991Z,30.65
2022-08-09T11:42:47.185Z,31.32
2022-08-09T11:45:44.708Z,31.69
2022-08-09T11:48:26.021Z,30.26
2022-08-09T11:52:48.509Z,30.32
2022-08-09T11:54:01.453Z,29.79
2022-08-09T11:56:41.468Z,30.64
2022-08-09T11:59:12.313Z,30.75
2022-08-09T12:02:18.409Z,29.44
2022-08-09T12:04:38.076Z,29.19
2022-08-09T12:07:08.457Z,29.16
2022-08-09T12:09:36.306Z,28.35
2022-08-09T12:12:28.536Z,28.24
2022-08-09T12:15:07.449Z,29.30
2022-08-09T12:17:44.515Z,28.79
2022-08-09T12:20:25.154Z,28.65
2022-08-09T12:23:01.471Z,28.34
2022-08-09T12:25:37.240Z,28.22
2022-08-09T12:29:12.228Z,28.50
2022-08-09T12:30:57.870Z,28.68
2022-08-09T12:33:35.359Z,29.53
2022-08-09T12:36:15.442Z,29.10
2022-08-09T12:38:58.716Z,29.15
2022-08-09T12:41:38.333Z,28.47
2022-08-09T12:44:09.672Z,28.35
2022-08-09T12:46:48.999Z,28.45
2022-08-09T12:49:17.577Z,28.62
2022-08-09T12:52:03.616Z,28.06
2022-08-09T12:55:03.022Z,27.88
2022-08-09T12:57:49.708Z,26.74
2022-08-09T13:00:25.533Z,27.07
2022-08-09T13:02:59.883Z,26.81
2022-08-09T13:05:52.395Z,27.52
2022-08-09T13:08:40.862Z,26.20
2022-08-09T13:11:13.192Z,25.41
2022-08-09T13:14:42.349Z,25.99
2022-08-09T13:16:56.796Z,26.10
2022-08-09T13:20:07.662Z,26.99
2022-08-09T13:23:01.218Z,26.73
2022-08-09T13:25:23.316Z,26.77
2022-08-09T13:27:56.054Z,26.29
2022-08-09T13:30:48.804Z,26.41
2022-08-09T13:33:22.385Z,26.34
2022-08-09T13:36:38.980Z,25.88
2022-08-09T13:39:34.355Z,25.35
2022-08-09T13:41:57.133Z,25.69
2022-08-09T13:44:28.295Z,25.92
2022-08-09T13:47:29.744Z,25.44
2022-08-09T13:49:56.276Z,25.83
2022-08-09T13:52:25.945Z,25.87
2022-08-09T13:55:00.935Z,26.29
2022-08-09T13:57:39.212Z,26.60
2022-08-09T14:00:16.145Z,25.18
2022-08-09T14:03:03.277Z,25.02
2022-08-09T14:06:00.376Z,24.21
2022-08-09T14:08:27.079Z,24.54
2022-08-09T14:10:56.518Z,24.32
2022-08-09T14:14:16.011Z,24.36
2022-08-09T14:16:15.377Z,23.84
2022-08-09T14:18:49.553Z,22.88
2022-08-09T14:21:21.050Z,22.58
2022-08-09T14:23:55.263Z,22.75
2022-08-09T14:26:31.783Z,21.68
2022-08-09T14:29:25.784Z,21.08
2022-08-09T14:31:56.040Z,22.08
2022-08-09T14:34:31.373Z,21.58
2022-08-09T14:37:06.914Z,22.26
2022-08-09T14:39:46.517Z,21.45
2022-08-09T14:42:28.885Z,20.33
2022-08-09T14:45:14.731Z,19.24
2022-08-09T14:47:57.423Z,19.03
2022-08-09T14:50:31.625Z,19.29
2022-08-09T14:53:11.737Z,19.39
2022-08-09T14:55:47.913Z,19.12
2022-08-09T14:58:17.464Z,18.47
2022-08-09T15:00:48.104Z,18.32
2022-08-09T15:03:20.216Z,18.40
2022-08-09T15:05:50.203Z,18.84
2022-08-09T15:08:23.975Z,18.55
2022-08-09T15:11:00.392Z,18.40
2022-08-09T15:13:47.839Z,18.87
2022-08-09T15:16:16.140Z,19.79
2022-08-09T15:18:43.197Z,20.94
2022-08-09T15:21:58.256Z,21.12
2022-08-09T15:24:09.197Z,20.53
2022-08-09T15:26:57.826Z,20.47
2022-08-09T15:30:58.999Z,20.21
2022-08-09T15:32:28.400Z,20.11
2022-08-09T15:35:01.022Z,20.62
2022-08-09T15:37:37.960Z,20.27
2022-08-09T15:40:25.166Z,19.52
2022-08-09T15:42:58.758Z,20.51
2022-08-09T15:45:29.169Z,20.99
2022-08-09T15:48:05.398Z,21.71
2022-08-09T15:50:39.340Z,22.15
2022-08-09T15:53:18.716Z,22.05
2022-08-09T15:58:46.457Z,22.85
2022-08-09T16:01:13.796Z,23.52
2022-08-09T16:03:41.752Z,23.73
2022-08-09T16:06:16.150Z,24.04
2022-08-09T16:09:01.283Z,24.86
2022-08-09T16:11:32.935Z,24.23
2022-08-09T16:14:07.988Z,24.86
2022-08-09T16:16:48.104Z,25.61
2022-08-09T16:19:15.304Z,25.41
2022-08-09T16:21:56.349Z,25.51
2022-08-09T16:24:33.310Z,26.01
2022-08-09T16:27:02.111Z,24.93
2022-08-09T16:29:37.752Z,25.85
2022-08-09T16:32:49.493Z,26.47
2022-08-09T16:35:19.400Z,26.32
2022-08-09T16:38:03.983Z,26.49
2022-08-09T16:40:40.711Z,26.53
2022-08-09T16:43:08.889Z,26.46
2022-08-09T16:45:37.181Z,26.26
2022-08-09T16:48:40.999Z,27.45
2022-08-09T16:51:08.009Z,26.66
2022-08-09T16:53:36.582Z,26.72
2022-08-09T16:56:10.149Z,27.68
2022-08-09T16:58:39.735Z,27.20
2022-08-09T17:01:09.605Z,27.63
2022-08-09T17:03:37.640Z,27.43
2022-08-09T17:06:28.453Z,26.88
2022-08-09T17:09:01.733Z,27.10
2022-08-09T17:11:40.812Z,27.35
2022-08-09T17:14:26.193Z,27.56
2022-08-09T17:17:23.360Z,27.12
2022-08-09T17:20:32.573Z,27.24
2022-08-09T17:22:52.083Z,27.67
2022-08-09T17:25:30.567Z,27.76
2022-08-09T17:27:58.437Z,27.84
2022-08-09T17:30:30.865Z,28.58
2022-08-09T17:33:05.296Z,28.69
2022-08-09T17:35:48.700Z,28.71
2022-08-09T17:38:30.731Z,28.46
2022-08-09T17:41:02.905Z,28.61
2022-08-09T17:43:34.707Z,29.00
2022-08-09T17:46:09.005Z,29.43
2022-08-09T17:48:40.317Z,29.23
2022-08-09T17:51:19.207Z,29.29
2022-08-09T17:53:53.030Z,29.65
2022-08-09T17:56:29.147Z,30.26
2022-08-09T17:59:09.499Z,30.06
2022-08-09T18:02:07.841Z,30.13
2022-08-09T18:04:30.369Z,30.36
2022-08-09T18:06:57.640Z,30.34
2022-08-09T18:09:40.055Z,30.19
2022-08-09T18:12:15.072Z,30.67
2022-08-09T18:14:53.795Z,30.48
2022-08-09T18:17:27.549Z,31.04
2022-08-09T18:20:55.956Z,31.30
2022-08-09T18:23:07.247Z,31.91
2022-08-09T18:25:52.453Z,32.71
2022-08-09T18:30:39.648Z,33.75
2022-08-09T18:31:32.065Z,34.06
2022-08-09T18:34:19.573Z,34.15
2022-08-09T18:36:50.760Z,34.87
2022-08-09T18:39:22.483Z,35.08
2022-08-09T18:41:52.843Z,35.15
2022-08-09T18:44:25.502Z,35.63
2022-08-09T18:47:04.863Z,35.87
2022-08-09T18:49:46.746Z,36.05
2022-08-09T18:52:18.827Z,36.45
2022-08-09T18:54:52.446Z,36.90
2022-08-09T18:57:22.117Z,37.32
2022-08-09T19:00:03.028Z,38.18
2022-08-09T19:02:32.491Z,38.93
2022-08-09T19:05:20.629Z,39.37
2022-08-09T19:08:04.319Z,40.21
2022-08-09T19:10:39.487Z,40.66
2022-08-09T19:13:20.954Z,41.08
2022-08-09T19:16:01.506Z,41.33
2022-08-09T19:18:36.317Z,41.88
2022-08-09T19:21:09.488Z,42.50
2022-08-09T19:24:32.369Z,42.96
2022-08-09T19:26:32.120Z,43.37
2022-08-09T19:29:15.676Z,43.97
2022-08-09T19:31:51.395Z,45.17
2022-08-09T19:34:21.799Z,45.36
2022-08-09T19:36:54.304Z,45.36
2022-08-09T19:39:43.864Z,46.55
2022-08-09T19:42:20.739Z,47.13
2022-08-09T19:44:55.263Z,47.34
2022-08-09T19:47:23.941Z,47.04
2022-08-09T19:50:08.331Z,47.42
2022-08-09T19:52:51.433Z,47.58
2022-08-09T19:55:30.607Z,48.02
2022-08-09T19:58:16.536Z,48.04
2022-08-09T20:00:45.845Z,47.88
2022-08-09T20:04:10.524Z,48.73
2022-08-09T20:06:22.690Z,50.26
2022-08-09T20:08:56.555Z,50.35
2022-08-09T20:11:25.920Z,50.48
2022-08-09T20:14:07.036Z,51.07
2022-08-09T20:16:50.320Z,51.08
2022-08-09T20:19:49.544Z,51.52
2022-08-09T20:22:18.932Z,52.29
2022-08-09T20:24:51.887Z,51.93
2022-08-09T20:27:21.857Z,52.65
2022-08-09T20:29:49.078Z,52.60
2022-08-09T20:32:30.861Z,53.28
2022-08-09T20:35:01.715Z,54.23
2022-08-09T20:37:37.289Z,53.57
2022-08-09T20:40:19.133Z,53.80
2022-08-09T20:43:00.183Z,54.52
2022-08-09T20:45:57.102Z,54.45
2022-08-09T20:48:29.068Z,54.67
2022-08-09T20:50:58.537Z,54.64
2022-08-09T20:53:36.329Z,55.13
2022-08-09T20:56:19.831Z,54.52
2022-08-09T20:58:50.364Z,54.89
2022-08-09T21:01:32.800Z,55.30
2022-08-09T21:05:49.522Z,55.88
2022-08-09T21:06:52.482Z,56.39
2022-08-09T21:09:32.930Z,56.44
2022-08-09T21:14:38.339Z,56.53
2022-08-09T21:18:24.158Z,56.92
2022-08-09T21:20:18.108Z,57.23
2022-08-09T21:22:46.788Z,56.99
2022-08-09T21:25:37.691Z,57.14
2022-08-09T21:28:07.580Z,57.51
2022-08-09T21:30:40.806Z,57.37
2022-08-09T21:33:09.002Z,57.83
2022-08-09T21:35:40.986Z,58.14
2022-08-09T21:38:21.104Z,57.59
2022-08-09T21:40:59.408Z,57.93
2022-08-09T21:43:56.013Z,58.41
2022-08-09T21:46:14.330Z,58.49
2022-08-09T21:48:42.720Z,58.36
2022-08-09T21:51:24.532Z,58.42
2022-08-09T21:54:03.111Z,58.70
2022-08-09T21:56:43.480Z,59.17
2022-08-09T21:59:16.733Z,59.32
2022-08-09T22:02:01.207Z,59.66
2022-08-09T22:04:55.233Z,60.20
2022-08-09T22:07:35.176Z,60.09
2022-08-09T22:10:07.602Z,60.43
2022-08-09T22:12:37.275Z,60.69
2022-08-09T22:15:16.654Z,60.87
2022-08-09T22:17:46.595Z,60.71
2022-08-09T22:20:17.073Z,60.83
2022-08-09T22:22:49.463Z,61.38
2022-08-09T22:26:07.194Z,61.67
2022-08-09T22:29:25.565Z,61.77
2022-08-09T22:31:57.349Z,61.80
2022-08-09T22:34:28.200Z,61.29
2022-08-09T22:36:57.181Z,61.34
2022-08-09T22:39:55.481Z,61.48
2022-08-09T22:42:20.918Z,61.79
2022-08-09T22:45:00.030Z,61.93
2022-08-09T22:48:18.406Z,61.94
2022-08-09T22:50:30.878Z,62.52
2022-08-09T22:52:59.875Z,62.92
2022-08-09T22:56:05.894Z,62.96
2022-08-09T22:58:20.474Z,63.27
2022-08-09T23:01:04.247Z,63.44
2022-08-09T23:04:03.465Z,64.36
2022-08-09T23:06:32.506Z,64.83
2022-08-09T23:09:06.373Z,65.43
2022-08-09T23:11:33.549Z,65.68
2022-08-09T23:14:00.611Z,65.46
2022-08-09T23:16:27.553Z,65.41
2022-08-09T23:18:54.429Z,65.79
2022-08-09T23:21:23.956Z,65.59
2022-08-09T23:24:05.260Z,65.64
2022-08-09T23:26:36.143Z,64.93
2022-08-09T23:29:07.193Z,65.10
2022-08-09T23:31:34.429Z,65.13
2022-08-09T23:34:03.900Z,65.00
2022-08-09T23:36:31.592Z,65.49
2022-08-09T23:38:58.474Z,65.27
2022-08-09T23:41:29.006Z,64.95
2022-08-09T23:44:00.927Z,65.24
2022-08-09T23:46:29.719Z,65.72
2022-08-09T23:48:57.675Z,65.81
2022-08-09T23:51:25.041Z,65.65
2022-08-09T23:53:52.485Z,65.45
2022-08-09T23:56:53.399Z,65.38
2022-08-09T23:59:09.313Z,65.67
